This is the latest recevied weather packets stored in our database for station/object IZ1GCT. If no packets are shown the sender has not sent any weather packets the latest 10 day(s).
| Time | Temp. | Humidity | Pressure | Rain* | Wind** | Luminosity | Snow |
|---|---|---|---|---|---|---|---|
| 1778147442 | 18.89° C | 41% | 1015.9 hPa | 0 mm | - | - | - |
| 1778147143 | 18.89° C | 37% | 1015.9 hPa | 0 mm | - | - | - |
| 1778146843 | 18.89° C | 42% | 1016 hPa | 0 mm | - | - | - |
| 1778146542 | 18.33° C | 41% | 1016 hPa | 0 mm | - | - | - |
| 1778146241 | 18.33° C | 40% | 1016 hPa | 0 mm | - | - | - |
| 1778145943 | 18.89° C | 40% | 1016 hPa | 0 mm | - | - | - |
| 1778145643 | 18.33° C | 44% | 1016 hPa | 0 mm | - | - | - |
| 1778145343 | 18.33° C | 43% | 1016 hPa | 0 mm | - | - | - |
| 1778145042 | 17.22° C | 48% | 1016.1 hPa | 0 mm | - | - | - |
| 1778144742 | 17.22° C | 52% | 1016.1 hPa | 0 mm | - | - | - |
| 1778144443 | 17.78° C | 50% | 1016 hPa | 0 mm | - | - | - |
| 1778144143 | 17.22° C | 54% | 1016.1 hPa | 0 mm | - | - | - |
| 1778143842 | 17.22° C | 55% | 1016.1 hPa | 0 mm | - | - | - |
| 1778143542 | 17.22° C | 56% | 1016.2 hPa | 0 mm | - | - | - |
| 1778143243 | 16.67° C | 56% | 1016.1 hPa | 0 mm | - | - | - |
| 1778142942 | 16.67° C | 56% | 1016.1 hPa | 0 mm | - | - | - |
| 1778142642 | 16.67° C | 55% | 1016.2 hPa | 0 mm | - | - | - |
| 1778142343 | 16.67° C | 54% | 1016.1 hPa | 0 mm | - | - | - |
| 1778142042 | 17.22° C | 53% | 1016.2 hPa | 0 mm | - | - | - |
| 1778141742 | 16.67° C | 53% | 1016.3 hPa | 0 mm | - | - | - |
| 1778141443 | 16.67° C | 52% | 1016.2 hPa | 0 mm | - | - | - |
| 1778141143 | 17.22° C | 51% | 1016.2 hPa | 0 mm | - | - | - |
| 1778140842 | 16.67° C | 50% | 1016.2 hPa | 0 mm | - | - | - |
| 1778140542 | 16.67° C | 48% | 1016.2 hPa | 0 mm | - | - | - |
| 1778140243 | 17.78° C | 41% | 1016.2 hPa | 0 mm | - | - | - |
* Rain latest hour (hover to see other rain measurements)
** Current wind speed in m/s (hover to see current wind gust speed)